Time;durP1;ratioP1;P1;durP2;ratioP2;P2;SDS_P1;SDS_P2;PMS_P1;PMS_P2;Temp;Humidity;BMP_temperature;BMP_pressure;BME280_temperature;BME280_humidity;BME280_pressure;Samples;Min_cycle;Max_cycle;Signal;HPM_P1;HPM_P2
2023/02/02 00:00:53;;;;;;;2.23;1.07;;;6.10;99.90;;;;;;6116315;23;20397;-72
2023/02/02 00:03:20;;;;;;;0.90;0.70;;;6.20;99.90;;;;;;6115489;23;20436;-71
2023/02/02 00:05:48;;;;;;;1.33;0.73;;;6.20;99.90;;;;;;6111705;23;20477;-71
2023/02/02 00:08:17;;;;;;;1.43;1.33;;;6.20;99.90;;;;;;6114957;23;20415;-72
2023/02/02 00:10:44;;;;;;;3.10;2.00;;;6.20;99.90;;;;;;6115321;23;20995;-72
2023/02/02 00:13:11;;;;;;;4.60;1.87;;;6.20;99.90;;;;;;6118638;23;20396;-71
2023/02/02 00:15:39;;;;;;;4.03;1.97;;;6.20;99.90;;;;;;6116813;23;20785;-71
2023/02/02 00:18:06;;;;;;;2.33;1.40;;;6.40;99.90;;;;;;6116712;23;20737;-71
2023/02/02 00:20:34;;;;;;;3.00;1.53;;;6.40;99.90;;;;;;6116032;23;20870;-72
2023/02/02 00:23:01;;;;;;;14.30;1.97;;;6.40;99.90;;;;;;6115719;23;20746;-72
2023/02/02 00:25:31;;;;;;;7.63;1.40;;;6.40;99.90;;;;;;6116250;23;20428;-72
2023/02/02 00:27:58;;;;;;;3.03;1.47;;;6.40;99.90;;;;;;6115913;23;20468;-72
2023/02/02 00:30:25;;;;;;;2.50;1.73;;;6.40;99.90;;;;;;6114936;23;20413;-72
2023/02/02 00:32:52;;;;;;;6.67;1.43;;;6.40;99.90;;;;;;6113052;23;20501;-72
2023/02/02 00:35:19;;;;;;;2.07;1.73;;;6.40;99.90;;;;;;6117627;23;20402;-72
2023/02/02 00:37:46;;;;;;;1.63;1.30;;;6.40;99.90;;;;;;6118144;23;20461;-71
2023/02/02 00:40:13;;;;;;;1.73;1.63;;;6.50;99.90;;;;;;6121646;23;20482;-72
2023/02/02 00:42:42;;;;;;;2.60;1.37;;;6.60;99.90;;;;;;6119689;23;20413;-72
2023/02/02 00:45:15;;;;;;;3.17;1.87;;;6.60;99.90;;;;;;6117342;23;20419;-72
2023/02/02 00:47:44;;;;;;;2.27;1.40;;;6.60;99.90;;;;;;6114882;23;20362;-72
2023/02/02 00:50:13;;;;;;;3.17;1.73;;;6.70;99.90;;;;;;6116884;23;20475;-71
2023/02/02 00:52:40;;;;;;;5.60;2.10;;;6.70;99.90;;;;;;6119779;23;20517;-72
2023/02/02 00:55:09;;;;;;;6.90;1.40;;;6.60;99.90;;;;;;6111800;23;20468;-71
2023/02/02 00:57:36;;;;;;;2.10;1.90;;;6.70;99.90;;;;;;6116223;23;21120;-73
2023/02/02 01:00:08;;;;;;;10.70;1.77;;;6.70;99.90;;;;;;6113317;23;21066;-71
2023/02/02 01:02:35;;;;;;;4.50;1.90;;;6.60;99.90;;;;;;6116017;23;20406;-72
2023/02/02 01:05:03;;;;;;;2.47;1.20;;;6.60;99.90;;;;;;6111451;23;20415;-72
2023/02/02 01:07:30;;;;;;;1.40;1.13;;;6.60;99.90;;;;;;6115357;23;20405;-72
2023/02/02 01:09:57;;;;;;;12.50;3.63;;;6.70;99.90;;;;;;6123186;23;20426;-71
2023/02/02 01:12:24;;;;;;;2.00;1.17;;;6.70;99.90;;;;;;6112762;23;20838;-72
2023/02/02 01:14:51;;;;;;;5.23;3.07;;;6.60;99.90;;;;;;6112239;23;20411;-70
2023/02/02 01:17:19;;;;;;;5.50;1.57;;;6.60;99.90;;;;;;6115450;23;20465;-71
2023/02/02 01:19:46;;;;;;;3.57;2.20;;;6.70;99.90;;;;;;6117184;23;20469;-72
2023/02/02 01:22:13;;;;;;;3.50;1.77;;;6.80;99.90;;;;;;6111731;23;20501;-72
2023/02/02 01:24:40;;;;;;;3.23;1.80;;;6.80;99.90;;;;;;6114880;23;20822;-72
2023/02/02 01:27:07;;;;;;;4.00;1.50;;;6.70;99.90;;;;;;6115310;23;20464;-71
2023/02/02 01:29:34;;;;;;;1.67;1.33;;;6.60;99.90;;;;;;6113170;23;20492;-72
2023/02/02 01:32:01;;;;;;;6.83;2.03;;;6.60;99.90;;;;;;6114622;23;20440;-72
2023/02/02 01:34:29;;;;;;;3.47;2.37;;;6.60;99.90;;;;;;6119471;23;20390;-71
2023/02/02 01:36:56;;;;;;;2.90;1.70;;;6.70;99.90;;;;;;6117596;23;20446;-71
2023/02/02 01:39:23;;;;;;;2.90;1.60;;;6.60;99.90;;;;;;6116720;23;20473;-71
2023/02/02 01:41:50;;;;;;;7.30;2.70;;;6.70;99.90;;;;;;6116915;23;20743;-71
2023/02/02 01:45:05;;;;;;;3.97;1.80;;;6.70;99.90;;;;;;6117836;23;20412;-71
2023/02/02 01:47:37;;;;;;;13.23;2.37;;;6.70;99.90;;;;;;6000208;23;20403;-71
2023/02/02 01:50:08;;;;;;;1.60;1.20;;;6.70;99.90;;;;;;6090531;23;20431;-70
2023/02/02 01:52:36;;;;;;;4.57;2.67;;;6.70;99.90;;;;;;6118018;23;20466;-71
2023/02/02 01:55:08;;;;;;;1.23;1.13;;;6.70;99.90;;;;;;6118688;23;20413;-71
2023/02/02 01:57:38;;;;;;;8.63;1.97;;;6.80;99.90;;;;;;6115999;23;20365;-70
2023/02/02 02:00:08;;;;;;;1.93;1.83;;;6.80;99.90;;;;;;6116986;23;20406;-71
2023/02/02 02:02:38;;;;;;;5.33;2.37;;;6.90;99.90;;;;;;6115003;23;20432;-71
2023/02/02 02:05:07;;;;;;;5.10;2.10;;;6.90;99.90;;;;;;6114853;23;20409;-71
2023/02/02 02:07:35;;;;;;;4.93;1.70;;;6.90;99.90;;;;;;6114894;23;20765;-72
2023/02/02 02:10:01;;;;;;;2.63;2.10;;;6.90;99.90;;;;;;6113920;23;20457;-71
2023/02/02 02:12:28;;;;;;;1.80;1.70;;;6.90;99.90;;;;;;6112260;23;20492;-71
2023/02/02 02:17:55;;;;;;;5.03;2.23;;;7.00;99.90;;;;;;6114680;23;20515;-71
2023/02/02 02:27:36;;;;;;;5.90;1.93;;;7.00;99.90;;;;;;6115317;23;20391;-71
2023/02/02 02:30:43;;;;;;;7.40;1.90;;;7.10;99.90;;;;;;6082707;23;20803;-71
2023/02/02 02:33:15;;;;;;;7.20;3.20;;;7.10;99.90;;;;;;6114677;23;20388;-71
2023/02/02 02:35:55;;;;;;;3.70;2.47;;;7.20;99.90;;;;;;6112795;23;20403;-71
2023/02/02 02:38:30;;;;;;;5.10;2.73;;;7.20;99.90;;;;;;6113363;23;20373;-71
2023/02/02 02:41:03;;;;;;;4.47;2.60;;;7.20;99.90;;;;;;6110808;23;20464;-72
2023/02/02 02:43:34;;;;;;;7.50;3.00;;;7.20;99.90;;;;;;6115260;23;20780;-70
2023/02/02 02:46:01;;;;;;;5.93;3.70;;;7.30;99.90;;;;;;6115206;23;20851;-71
2023/02/02 02:48:30;;;;;;;6.23;3.17;;;7.30;99.90;;;;;;6111741;23;20406;-71
2023/02/02 02:51:06;;;;;;;4.63;2.50;;;7.30;99.90;;;;;;6110873;23;20941;-71
2023/02/02 02:53:34;;;;;;;9.20;2.40;;;7.30;99.90;;;;;;6117755;23;20380;-71
2023/02/02 02:56:10;;;;;;;16.20;5.47;;;7.40;99.90;;;;;;6111911;23;21065;-71
2023/02/02 02:58:46;;;;;;;4.77;2.30;;;7.50;99.90;;;;;;6118010;23;20927;-70
2023/02/02 03:01:20;;;;;;;5.20;3.63;;;7.50;99.90;;;;;;6112775;23;20430;-71
2023/02/02 03:04:00;;;;;;;4.00;2.70;;;7.50;99.90;;;;;;6117265;23;20397;-70
2023/02/02 03:06:33;;;;;;;12.30;4.10;;;7.50;99.90;;;;;;6114159;23;20377;-71
2023/02/02 03:09:04;;;;;;;10.00;3.40;;;7.50;99.90;;;;;;6109607;23;21030;-70
2023/02/02 03:11:31;;;;;;;11.10;3.80;;;7.40;99.90;;;;;;6117379;23;20487;-70
2023/02/02 03:13:58;;;;;;;4.60;2.80;;;7.40;99.90;;;;;;6112542;23;20407;-70
2023/02/02 03:16:25;;;;;;;3.67;3.17;;;7.40;99.90;;;;;;6117279;23;20413;-71
2023/02/02 03:18:54;;;;;;;4.07;2.57;;;7.40;99.90;;;;;;6115351;23;20541;-71
2023/02/02 03:21:21;;;;;;;7.87;2.93;;;7.30;99.90;;;;;;6117475;23;20427;-71
2023/02/02 03:23:48;;;;;;;10.80;2.93;;;7.40;99.90;;;;;;6118285;23;20399;-71
2023/02/02 03:26:15;;;;;;;6.67;2.50;;;7.30;99.90;;;;;;6116817;23;20422;-70
2023/02/02 03:28:42;;;;;;;1.70;1.20;;;7.30;99.90;;;;;;6108653;23;20425;-70
2023/02/02 03:31:09;;;;;;;2.63;1.80;;;7.30;99.90;;;;;;6116079;23;20529;-71
2023/02/02 03:33:37;;;;;;;7.37;2.70;;;7.20;99.90;;;;;;6117554;23;20776;-71
2023/02/02 03:36:06;;;;;;;2.40;1.70;;;7.20;99.90;;;;;;6117487;23;20775;-71
2023/02/02 03:38:33;;;;;;;8.50;1.77;;;7.20;99.90;;;;;;6113530;23;20405;-70
2023/02/02 03:41:00;;;;;;;1.40;0.97;;;7.30;99.90;;;;;;6112687;23;20431;-71
2023/02/02 03:43:28;;;;;;;4.37;2.13;;;7.30;99.90;;;;;;6115933;23;20762;-70
2023/02/02 03:45:59;;;;;;;2.20;1.50;;;7.20;99.90;;;;;;6107723;23;20415;-70
2023/02/02 03:48:26;;;;;;;3.23;1.93;;;7.20;99.90;;;;;;6118112;23;20821;-70
2023/02/02 03:50:53;;;;;;;4.20;1.47;;;7.10;99.90;;;;;;6113895;23;20456;-70
2023/02/02 03:53:22;;;;;;;6.20;1.50;;;7.20;99.90;;;;;;6122395;23;20501;-71
2023/02/02 03:55:49;;;;;;;5.90;1.20;;;7.20;99.90;;;;;;6116033;23;20492;-69
2023/02/02 03:58:17;;;;;;;8.73;1.57;;;7.20;99.90;;;;;;6116925;23;20578;-71
2023/02/02 04:00:44;;;;;;;1.73;1.10;;;7.10;99.90;;;;;;6114297;23;20399;-72
2023/02/02 04:03:11;;;;;;;3.57;1.97;;;7.10;99.90;;;;;;6113736;23;20400;-70
2023/02/02 04:05:38;;;;;;;2.47;2.23;;;7.20;99.90;;;;;;6113222;23;20411;-71
2023/02/02 04:08:05;;;;;;;1.63;1.53;;;7.10;99.90;;;;;;6114130;23;20930;-71
2023/02/02 04:10:33;;;;;;;1.83;1.13;;;7.10;99.90;;;;;;6112892;23;20955;-71
2023/02/02 04:13:02;;;;;;;8.57;1.37;;;7.10;99.90;;;;;;6118642;23;20381;-71
2023/02/02 04:15:29;;;;;;;2.23;1.50;;;7.10;99.90;;;;;;6113840;23;20389;-71
2023/02/02 04:17:56;;;;;;;1.73;1.50;;;7.10;99.90;;;;;;6116223;23;20448;-71
2023/02/02 04:20:23;;;;;;;1.30;1.10;;;7.10;99.90;;;;;;6115305;23;20410;-71
2023/02/02 04:22:50;;;;;;;2.70;1.40;;;7.00;99.90;;;;;;6114271;23;20423;-71
2023/02/02 04:25:17;;;;;;;6.00;3.20;;;7.00;99.90;;;;;;6117623;23;20400;-70
2023/02/02 04:27:45;;;;;;;1.70;1.40;;;7.00;99.90;;;;;;6116561;23;21204;-71
2023/02/02 04:30:12;;;;;;;5.53;1.67;;;7.00;99.90;;;;;;6114383;23;20382;-71
2023/02/02 04:32:39;;;;;;;2.87;1.30;;;7.00;99.90;;;;;;6113508;23;20492;-70
2023/02/02 04:35:07;;;;;;;2.97;1.80;;;7.00;99.90;;;;;;6115542;23;20421;-71
2023/02/02 04:37:34;;;;;;;2.90;1.73;;;7.10;99.90;;;;;;6115709;23;20385;-70
2023/02/02 04:40:01;;;;;;;1.90;1.60;;;7.00;99.90;;;;;;6117743;23;20415;-71
2023/02/02 04:42:30;;;;;;;1.27;1.07;;;7.00;99.90;;;;;;6115939;23;20405;-71
2023/02/02 04:44:59;;;;;;;4.17;1.20;;;7.00;99.90;;;;;;6116090;23;20801;-71
2023/02/02 04:47:26;;;;;;;2.70;1.87;;;7.00;99.90;;;;;;6117356;23;20481;-72
2023/02/02 04:49:53;;;;;;;2.00;1.50;;;7.10;99.90;;;;;;6122561;23;21026;-71
2023/02/02 04:52:20;;;;;;;7.77;3.10;;;7.10;99.90;;;;;;6111459;23;20512;-72
2023/02/02 04:54:46;;;;;;;2.50;1.80;;;7.20;99.90;;;;;;6116687;23;20391;-71
2023/02/02 04:57:13;;;;;;;3.93;3.47;;;7.20;99.90;;;;;;6114826;23;20401;-71
2023/02/02 04:59:40;;;;;;;4.00;2.47;;;7.30;99.90;;;;;;6112014;23;20492;-71
2023/02/02 05:02:09;;;;;;;6.50;3.10;;;7.20;99.90;;;;;;6114725;23;21073;-71
2023/02/02 05:04:36;;;;;;;6.63;3.57;;;7.30;99.90;;;;;;6119041;23;20411;-71
2023/02/02 05:07:03;;;;;;;3.67;2.57;;;7.30;99.90;;;;;;6112490;23;20420;-70
2023/02/02 05:09:29;;;;;;;6.53;2.77;;;7.30;99.90;;;;;;6115664;23;20460;-71
2023/02/02 05:11:56;;;;;;;5.17;3.13;;;7.30;99.90;;;;;;6115356;23;20421;-71
2023/02/02 05:14:23;;;;;;;4.60;2.77;;;7.30;99.90;;;;;;6114451;23;20394;-71
2023/02/02 05:16:51;;;;;;;8.83;6.23;;;7.40;99.90;;;;;;6110062;23;20392;-71
2023/02/02 05:19:19;;;;;;;10.13;6.17;;;7.30;99.90;;;;;;6114459;23;20430;-72
2023/02/02 05:21:48;;;;;;;10.80;5.23;;;7.40;99.90;;;;;;6115492;23;20409;-71
2023/02/02 05:24:15;;;;;;;8.93;6.20;;;7.30;99.90;;;;;;6112570;23;20582;-70
2023/02/02 05:26:43;;;;;;;24.20;7.20;;;7.30;99.90;;;;;;6113780;23;20974;-71
2023/02/02 05:29:10;;;;;;;5.90;3.33;;;7.30;99.90;;;;;;6112249;23;20405;-72
2023/02/02 05:31:37;;;;;;;11.83;5.20;;;7.30;99.90;;;;;;6116501;23;20883;-72
2023/02/02 05:34:05;;;;;;;14.60;6.03;;;7.30;99.90;;;;;;6113807;23;20525;-72
2023/02/02 05:36:34;;;;;;;8.43;4.37;;;7.30;99.90;;;;;;6113835;23;20774;-72
2023/02/02 05:39:01;;;;;;;3.50;2.97;;;7.30;99.90;;;;;;6106742;23;20725;-72
2023/02/02 05:41:28;;;;;;;12.53;4.50;;;7.30;99.90;;;;;;6112770;23;20405;-74
2023/02/02 05:43:55;;;;;;;14.17;4.30;;;7.40;99.90;;;;;;6119167;23;20447;-72
2023/02/02 05:46:22;;;;;;;10.23;5.00;;;7.50;99.90;;;;;;6057696;23;20406;-70
2023/02/02 05:48:49;;;;;;;9.13;4.23;;;7.50;99.90;;;;;;6111640;23;20429;-70
2023/02/02 05:51:19;;;;;;;3.67;2.50;;;7.40;99.90;;;;;;6112592;23;20863;-68
2023/02/02 05:53:49;;;;;;;15.50;5.30;;;7.50;99.90;;;;;;6102941;23;20389;-69
2023/02/02 05:56:16;;;;;;;2.37;2.10;;;7.50;99.90;;;;;;6106860;23;20409;-70
2023/02/02 05:58:46;;;;;;;15.33;4.83;;;7.50;99.90;;;;;;6108093;23;20498;-70
2023/02/02 06:01:14;;;;;;;4.83;3.70;;;7.40;99.90;;;;;;6106015;23;20409;-68
2023/02/02 06:03:41;;;;;;;5.83;3.50;;;7.50;99.90;;;;;;6117027;23;20441;-72
2023/02/02 06:06:08;;;;;;;11.60;4.07;;;7.60;99.90;;;;;;6119819;23;20765;-71
2023/02/02 06:08:34;;;;;;;9.33;3.40;;;7.60;99.90;;;;;;6120775;23;20480;-70
2023/02/02 06:11:10;;;;;;;14.73;4.70;;;7.50;99.90;;;;;;6120376;23;20502;-70
2023/02/02 06:13:37;;;;;;;8.90;3.83;;;7.50;99.90;;;;;;6119318;23;20395;-70
2023/02/02 06:16:04;;;;;;;18.57;4.00;;;7.60;99.90;;;;;;6121349;23;20430;-69
2023/02/02 06:18:31;;;;;;;11.60;4.67;;;7.60;99.90;;;;;;6116633;23;20420;-69
2023/02/02 06:20:59;;;;;;;5.00;3.70;;;7.60;99.90;;;;;;6120698;23;20513;-70
2023/02/02 06:23:27;;;;;;;9.07;2.67;;;7.60;99.90;;;;;;6119485;23;20763;-70
2023/02/02 06:25:54;;;;;;;6.23;3.77;;;7.60;99.90;;;;;;6117256;23;20391;-71
2023/02/02 06:28:22;;;;;;;10.53;3.60;;;7.60;99.90;;;;;;6118492;23;20794;-70
2023/02/02 06:30:49;;;;;;;3.37;3.03;;;7.60;99.90;;;;;;6117857;23;20455;-71
2023/02/02 06:33:16;;;;;;;4.33;3.87;;;7.60;99.90;;;;;;6119941;23;20488;-71
2023/02/02 06:35:43;;;;;;;8.30;4.77;;;7.60;99.90;;;;;;6120529;23;20454;-71
2023/02/02 06:38:10;;;;;;;14.53;4.47;;;7.60;99.90;;;;;;6119708;23;20725;-70
2023/02/02 06:40:40;;;;;;;9.90;5.33;;;7.60;99.90;;;;;;6121605;23;20422;-69
2023/02/02 06:43:07;;;;;;;7.10;3.37;;;7.60;99.90;;;;;;6121315;23;20416;-70
2023/02/02 06:45:39;;;;;;;7.30;4.60;;;7.60;99.90;;;;;;6118934;23;20476;-70
2023/02/02 06:48:09;;;;;;;14.70;5.40;;;7.60;99.90;;;;;;6118180;23;20370;-70
2023/02/02 06:50:36;;;;;;;9.83;2.93;;;7.60;99.90;;;;;;6119837;23;20412;-70
2023/02/02 06:53:04;;;;;;;13.97;6.60;;;7.60;99.90;;;;;;6119807;23;20423;-70
2023/02/02 06:55:30;;;;;;;11.07;4.83;;;7.60;99.90;;;;;;6119738;23;20501;-70
2023/02/02 06:57:58;;;;;;;16.80;5.67;;;7.60;99.90;;;;;;6118492;23;20410;-70
2023/02/02 07:00:25;;;;;;;8.20;4.03;;;7.60;99.90;;;;;;6118222;23;20425;-70
2023/02/02 07:02:53;;;;;;;21.63;5.93;;;7.60;99.90;;;;;;6118656;23;20410;-70
2023/02/02 07:05:22;;;;;;;9.33;4.40;;;7.70;99.90;;;;;;6115072;23;20852;-70
2023/02/02 07:07:49;;;;;;;8.67;3.67;;;7.70;99.90;;;;;;6118245;23;20393;-70
2023/02/02 07:10:17;;;;;;;11.83;5.33;;;7.80;99.90;;;;;;6118937;23;20571;-70
2023/02/02 07:12:44;;;;;;;8.40;4.47;;;7.70;99.90;;;;;;6117334;23;20458;-71
2023/02/02 07:15:11;;;;;;;6.50;4.30;;;7.70;99.90;;;;;;6118991;23;20453;-70
2023/02/02 07:17:39;;;;;;;9.10;6.57;;;7.70;99.90;;;;;;6117087;23;20426;-70
2023/02/02 07:20:08;;;;;;;7.07;4.07;;;7.80;99.90;;;;;;6120058;23;20437;-71
2023/02/02 07:22:38;;;;;;;12.43;4.43;;;7.70;99.90;;;;;;6120207;23;20443;-71
2023/02/02 07:25:05;;;;;;;11.33;8.10;;;7.70;99.90;;;;;;6117520;23;20398;-71
2023/02/02 07:27:32;;;;;;;22.37;6.33;;;7.70;99.90;;;;;;6119955;23;20725;-70
2023/02/02 07:30:02;;;;;;;15.73;5.97;;;7.70;99.90;;;;;;6117754;23;20660;-70
2023/02/02 07:32:29;;;;;;;5.07;3.43;;;7.70;99.90;;;;;;6121140;23;20514;-68
2023/02/02 07:34:56;;;;;;;14.43;4.60;;;7.70;99.90;;;;;;6121360;23;20528;-69
2023/02/02 07:37:25;;;;;;;9.00;4.00;;;7.70;99.90;;;;;;6119310;23;20966;-70
2023/02/02 07:39:52;;;;;;;14.00;6.10;;;7.70;99.90;;;;;;6119137;23;20508;-71
2023/02/02 07:42:19;;;;;;;15.00;3.70;;;7.70;99.90;;;;;;6117877;23;20484;-70
2023/02/02 07:44:46;;;;;;;10.00;4.57;;;7.70;99.90;;;;;;6117923;23;20441;-69
2023/02/02 07:47:13;;;;;;;15.73;3.93;;;7.70;99.90;;;;;;6117964;23;20911;-69
2023/02/02 07:49:42;;;;;;;8.27;4.50;;;7.70;99.90;;;;;;6119595;23;20440;-70
2023/02/02 07:52:08;;;;;;;6.40;5.03;;;7.70;99.90;;;;;;6066557;23;20425;-70
2023/02/02 07:54:37;;;;;;;15.40;4.40;;;7.80;99.90;;;;;;6117580;23;20446;-70
2023/02/02 07:57:04;;;;;;;11.03;5.50;;;7.70;99.90;;;;;;6119501;23;20722;-68
2023/02/02 07:59:31;;;;;;;5.33;2.73;;;7.80;99.90;;;;;;6119874;23;20389;-70
2023/02/02 08:01:58;;;;;;;7.83;5.33;;;7.80;99.90;;;;;;6121454;23;20406;-71
2023/02/02 08:04:25;;;;;;;3.07;2.17;;;7.80;99.90;;;;;;6122345;23;20469;-69
2023/02/02 08:06:52;;;;;;;8.17;3.47;;;7.80;99.90;;;;;;6118033;23;20410;-70
2023/02/02 08:09:19;;;;;;;7.50;5.27;;;7.80;99.90;;;;;;6122066;23;20501;-70
2023/02/02 08:11:47;;;;;;;12.77;5.90;;;7.80;99.90;;;;;;6120758;23;20489;-69
2023/02/02 08:14:14;;;;;;;7.00;4.23;;;7.80;99.90;;;;;;6117897;23;20870;-70
2023/02/02 08:16:41;;;;;;;9.13;4.17;;;7.90;99.90;;;;;;6120761;23;20509;-71
2023/02/02 08:19:10;;;;;;;11.97;4.80;;;7.80;99.90;;;;;;6115863;23;20422;-71
2023/02/02 08:21:37;;;;;;;6.90;5.33;;;7.80;99.90;;;;;;6117010;23;20442;-69
2023/02/02 08:24:05;;;;;;;8.17;5.03;;;7.80;99.90;;;;;;6116020;23;20445;-70
2023/02/02 08:26:32;;;;;;;7.63;4.60;;;7.90;99.90;;;;;;6119116;23;20400;-70
2023/02/02 08:29:07;;;;;;;10.97;5.30;;;8.00;99.90;;;;;;6123693;23;20966;-71
2023/02/02 08:31:36;;;;;;;4.70;3.07;;;7.90;99.90;;;;;;6119880;23;20431;-69
2023/02/02 08:34:04;;;;;;;6.80;4.13;;;7.90;99.90;;;;;;6117963;23;20385;-70
2023/02/02 08:36:34;;;;;;;23.93;5.07;;;7.90;99.90;;;;;;6118741;23;20395;-71
2023/02/02 08:39:03;;;;;;;7.67;6.07;;;7.90;99.90;;;;;;6118025;23;20408;-70
2023/02/02 08:41:31;;;;;;;9.03;6.30;;;7.90;99.90;;;;;;6121293;23;20431;-70
2023/02/02 08:44:00;;;;;;;11.73;5.80;;;8.00;99.90;;;;;;6117466;23;20401;-71
2023/02/02 08:46:27;;;;;;;9.03;5.97;;;7.90;99.90;;;;;;6120810;23;20897;-71
2023/02/02 08:48:54;;;;;;;10.10;4.37;;;8.00;99.90;;;;;;6119073;23;20421;-70
2023/02/02 08:51:21;;;;;;;4.93;2.67;;;8.00;99.90;;;;;;6120886;23;20405;-71
2023/02/02 08:53:48;;;;;;;14.97;5.10;;;8.00;99.90;;;;;;6121388;23;20970;-71
2023/02/02 08:56:16;;;;;;;8.73;5.47;;;8.00;99.90;;;;;;6119943;23;20396;-70
2023/02/02 08:58:46;;;;;;;6.93;5.83;;;8.10;99.90;;;;;;6120782;23;20389;-71
2023/02/02 09:01:16;;;;;;;7.30;3.93;;;8.00;99.90;;;;;;6119808;23;20910;-70
2023/02/02 09:03:43;;;;;;;5.90;4.60;;;8.00;99.90;;;;;;6118335;23;20427;-71
2023/02/02 09:06:12;;;;;;;8.50;3.97;;;8.00;99.90;;;;;;6120649;23;20407;-70
2023/02/02 09:08:39;;;;;;;10.13;4.80;;;8.00;99.90;;;;;;6114652;23;20472;-70
2023/02/02 09:11:08;;;;;;;12.50;3.80;;;8.10;99.90;;;;;;6113354;23;20451;-70
2023/02/02 09:13:35;;;;;;;19.23;5.83;;;8.10;99.90;;;;;;6116226;23;20989;-71
2023/02/02 09:16:02;;;;;;;6.93;3.80;;;8.00;99.90;;;;;;6119313;23;20465;-71
2023/02/02 09:18:31;;;;;;;8.17;4.50;;;8.00;99.90;;;;;;6118771;23;20493;-70
2023/02/02 09:21:00;;;;;;;8.80;4.97;;;8.10;99.90;;;;;;6117394;23;20435;-69
2023/02/02 09:23:30;;;;;;;7.73;3.07;;;8.10;99.90;;;;;;6121388;23;20493;-70
2023/02/02 09:25:57;;;;;;;7.63;3.80;;;8.00;99.90;;;;;;6121702;23;20981;-70
2023/02/02 09:28:24;;;;;;;15.10;5.60;;;8.10;99.90;;;;;;6119160;23;20495;-69
2023/02/02 09:30:51;;;;;;;8.13;4.13;;;8.20;99.90;;;;;;6065504;23;20526;-68
2023/02/02 09:33:18;;;;;;;4.03;2.93;;;8.10;99.90;;;;;;6118563;23;20536;-69
2023/02/02 09:35:46;;;;;;;5.23;4.53;;;8.10;99.90;;;;;;6118890;23;20484;-69
2023/02/02 09:38:13;;;;;;;8.40;4.03;;;8.10;99.90;;;;;;6119502;23;20435;-68
2023/02/02 09:40:41;;;;;;;5.63;4.43;;;8.00;99.90;;;;;;6119852;23;20828;-69
2023/02/02 09:43:23;;;;;;;5.00;2.90;;;8.00;99.90;;;;;;6118647;23;20423;-69
2023/02/02 09:46:00;;;;;;;12.03;3.30;;;8.10;99.90;;;;;;6117020;23;21316;-69
2023/02/02 09:48:34;;;;;;;8.70;5.70;;;8.20;99.90;;;;;;6116973;23;20407;-68
2023/02/02 09:51:06;;;;;;;3.50;2.90;;;8.20;99.90;;;;;;6115332;23;20997;-69
2023/02/02 09:53:42;;;;;;;7.40;4.27;;;8.20;99.90;;;;;;6120333;23;20978;-69
2023/02/02 09:56:18;;;;;;;7.60;5.00;;;8.20;99.90;;;;;;6116289;23;20377;-69
2023/02/02 09:58:51;;;;;;;8.50;4.90;;;8.30;99.90;;;;;;6113068;23;20405;-69
2023/02/02 10:01:22;;;;;;;4.30;3.90;;;8.30;99.90;;;;;;6110119;23;20522;-69
2023/02/02 10:04:00;;;;;;;7.37;5.03;;;8.30;99.90;;;;;;6115394;23;21062;-68
2023/02/02 10:06:35;;;;;;;10.93;6.53;;;8.30;99.90;;;;;;6111888;23;20989;-70
2023/02/02 10:09:17;;;;;;;8.00;5.10;;;8.30;99.90;;;;;;6112983;23;20394;-70
2023/02/02 10:11:51;;;;;;;6.33;4.40;;;8.20;99.90;;;;;;6113112;23;20834;-69
2023/02/02 10:14:23;;;;;;;5.23;3.90;;;8.20;99.90;;;;;;6119139;23;20526;-70
2023/02/02 10:16:54;;;;;;;23.60;5.10;;;8.10;99.90;;;;;;6117284;23;20394;-69
2023/02/02 10:19:27;;;;;;;6.03;3.50;;;8.10;99.90;;;;;;6115268;23;20502;-70
2023/02/02 10:22:05;;;;;;;5.60;4.53;;;8.10;99.90;;;;;;6118068;23;20470;-70
2023/02/02 10:24:34;;;;;;;23.20;4.80;;;8.20;99.90;;;;;;6115279;23;20426;-70
2023/02/02 10:27:05;;;;;;;9.97;5.97;;;8.10;99.90;;;;;;6118066;23;20568;-70
2023/02/02 10:29:42;;;;;;;6.43;4.60;;;8.20;99.90;;;;;;6063092;23;20782;-69
2023/02/02 10:32:21;;;;;;;7.73;3.93;;;8.10;99.90;;;;;;6118703;23;20405;-70
2023/02/02 10:35:16;;;;;;;5.80;3.00;;;8.10;99.90;;;;;;6062085;23;20395;-69
2023/02/02 10:37:50;;;;;;;4.80;2.50;;;8.10;99.90;;;;;;6108530;23;20728;-70
2023/02/02 10:40:30;;;;;;;6.83;4.00;;;8.20;99.90;;;;;;6119044;23;20399;-70
2023/02/02 10:46:18;;;;;;;9.90;5.30;;;8.20;99.90;;;;;;6065742;23;20779;-69
2023/02/02 10:48:47;;;;;;;15.00;5.07;;;8.20;99.90;;;;;;6116848;23;20443;-70
2023/02/02 10:51:23;;;;;;;6.17;3.40;;;8.20;99.90;;;;;;6120011;23;20594;-70
2023/02/02 10:53:54;;;;;;;11.37;6.43;;;8.10;99.90;;;;;;6119311;23;20472;-69
2023/02/02 10:56:26;;;;;;;7.13;4.10;;;8.00;99.90;;;;;;6120266;23;20399;-70
2023/02/02 10:58:59;;;;;;;4.97;3.27;;;8.10;99.90;;;;;;6116777;23;20373;-69
2023/02/02 11:01:26;;;;;;;4.23;3.53;;;8.00;99.90;;;;;;6118995;23;20794;-69
2023/02/02 11:06:48;;;;;;;6.03;4.70;;;8.00;99.90;;;;;;6120458;23;20460;-70
2023/02/02 11:06:48;;;;;;;22.13;6.10;;;8.10;99.90;;;;;;6115521;23;20362;-69
2023/02/02 11:09:20;;;;;;;11.10;4.50;;;8.10;99.90;;;;;;6114868;23;20417;-69
2023/02/02 11:11:51;;;;;;;16.63;4.37;;;8.20;99.90;;;;;;6116065;23;20442;-70
2023/02/02 11:14:32;;;;;;;9.77;5.97;;;8.20;99.90;;;;;;6117841;23;20497;-70
2023/02/02 11:17:04;;;;;;;5.53;4.37;;;8.20;99.90;;;;;;6116655;23;20474;-70
2023/02/02 11:19:36;;;;;;;13.47;6.63;;;8.30;99.90;;;;;;6117471;23;21273;-71
2023/02/02 11:22:04;;;;;;;11.50;7.77;;;8.20;99.90;;;;;;6116466;23;20431;-71
2023/02/02 11:24:40;;;;;;;9.13;3.93;;;8.20;99.90;;;;;;6117935;23;20429;-70
2023/02/02 11:27:13;;;;;;;7.50;5.87;;;8.30;99.90;;;;;;6118676;23;20495;-71
2023/02/02 11:29:44;;;;;;;8.57;7.73;;;8.40;99.90;;;;;;6119620;23;20441;-70
2023/02/02 11:32:27;;;;;;;12.50;4.10;;;8.40;99.90;;;;;;6116966;23;21147;-71
2023/02/02 11:35:14;;;;;;;9.47;5.73;;;8.40;99.90;;;;;;6120720;23;20428;-70
2023/02/02 11:37:53;;;;;;;6.10;4.67;;;8.40;99.90;;;;;;6115830;23;20385;-69
2023/02/02 11:40:28;;;;;;;7.73;5.43;;;8.30;99.90;;;;;;6117375;23;20418;-69
2023/02/02 11:42:57;;;;;;;9.10;4.33;;;8.40;99.90;;;;;;6121563;23;20405;-71
2023/02/02 11:45:30;;;;;;;7.83;5.43;;;8.40;99.90;;;;;;6120012;23;20399;-70
2023/02/02 11:48:02;;;;;;;7.63;5.43;;;8.40;99.90;;;;;;6119725;23;20453;-70
2023/02/02 11:50:29;;;;;;;8.97;5.93;;;8.50;99.90;;;;;;6118503;23;20788;-70
2023/02/02 11:52:57;;;;;;;13.57;5.87;;;8.40;99.90;;;;;;6118782;23;20421;-71
2023/02/02 11:55:29;;;;;;;12.77;7.70;;;8.40;99.90;;;;;;6121567;23;20423;-71
2023/02/02 11:58:18;;;;;;;9.03;6.10;;;8.40;99.90;;;;;;6119139;23;20736;-71
2023/02/02 12:00:53;;;;;;;11.97;5.50;;;8.40;99.90;;;;;;6112363;23;20494;-69
2023/02/02 12:03:26;;;;;;;15.20;6.07;;;8.50;99.90;;;;;;6118780;23;20459;-71
2023/02/02 12:05:55;;;;;;;9.73;6.17;;;8.40;99.90;;;;;;6122290;23;20473;-70
2023/02/02 12:08:22;;;;;;;9.40;6.07;;;8.40;99.90;;;;;;6114843;23;20546;-70
2023/02/02 12:11:06;;;;;;;10.80;5.77;;;8.50;99.90;;;;;;6121250;23;20401;-71
2023/02/02 12:13:50;;;;;;;26.67;6.10;;;8.50;99.90;;;;;;6121154;23;20493;-70
2023/02/02 12:16:32;;;;;;;13.50;8.13;;;8.50;99.90;;;;;;6116203;23;20410;-71
2023/02/02 12:19:15;;;;;;;5.40;4.33;;;8.40;99.90;;;;;;6115876;23;20370;-68
2023/02/02 12:21:51;;;;;;;17.60;5.73;;;8.40;99.90;;;;;;6120081;23;20409;-68
2023/02/02 12:24:30;;;;;;;12.30;5.20;;;8.30;99.90;;;;;;6092584;23;20430;-70
2023/02/02 12:27:18;;;;;;;13.93;5.03;;;8.30;99.90;;;;;;6119896;23;20434;-71
2023/02/02 12:29:56;;;;;;;9.50;6.00;;;8.50;99.90;;;;;;6114782;23;20470;-71
2023/02/02 12:32:37;;;;;;;9.03;4.37;;;8.50;99.90;;;;;;6120349;23;20450;-71
2023/02/02 12:35:30;;;;;;;9.53;5.30;;;8.40;99.90;;;;;;6121995;23;20432;-71
2023/02/02 12:38:03;;;;;;;9.97;5.73;;;8.50;99.90;;;;;;6120759;23;20444;-68
2023/02/02 12:40:46;;;;;;;5.03;4.27;;;8.50;99.90;;;;;;6117908;23;20445;-70
2023/02/02 12:43:28;;;;;;;7.30;5.53;;;8.40;99.90;;;;;;6121693;23;20479;-68
2023/02/02 12:46:22;;;;;;;8.70;5.17;;;8.50;99.90;;;;;;6115702;23;20456;-70
2023/02/02 12:49:11;;;;;;;10.37;3.83;;;8.50;99.90;;;;;;6121233;23;20430;-71
2023/02/02 12:51:53;;;;;;;9.70;4.20;;;8.60;99.90;;;;;;6117012;23;20431;-71
2023/02/02 12:54:40;;;;;;;6.90;5.60;;;8.60;99.90;;;;;;6119046;23;20454;-68
2023/02/02 12:57:20;;;;;;;7.10;5.57;;;8.50;99.90;;;;;;6118422;23;20445;-69
2023/02/02 13:00:07;;;;;;;27.53;4.50;;;8.60;99.90;;;;;;6119105;23;20424;-69
2023/02/02 13:02:38;;;;;;;4.83;4.27;;;8.60;99.90;;;;;;6118377;23;20411;-69
2023/02/02 13:05:26;;;;;;;9.30;4.57;;;8.50;99.90;;;;;;6123768;23;20412;-69
2023/02/02 13:07:57;;;;;;;6.17;5.10;;;8.50;99.90;;;;;;6093376;23;20405;-69
2023/02/02 13:10:30;;;;;;;6.07;3.90;;;8.50;99.90;;;;;;6117643;23;20904;-69
2023/02/02 13:13:01;;;;;;;19.23;5.10;;;8.60;99.90;;;;;;6116297;23;21007;-69
2023/02/02 13:15:35;;;;;;;3.93;3.30;;;8.70;99.90;;;;;;6114937;23;20410;-67
2023/02/02 13:18:07;;;;;;;13.53;4.47;;;8.60;99.90;;;;;;6119492;23;20401;-68
2023/02/02 13:20:40;;;;;;;8.30;3.70;;;8.60;99.90;;;;;;6117816;23;20397;-69
2023/02/02 13:23:13;;;;;;;8.13;4.97;;;8.60;99.90;;;;;;6115470;23;20395;-69
2023/02/02 13:25:46;;;;;;;18.20;6.77;;;8.60;99.90;;;;;;6116593;23;20426;-69